Time;durP1;ratioP1;P1;durP2;ratioP2;P2;SDS_P1;SDS_P2;PMS_P1;PMS_P2;Temp;Humidity;BMP_temperature;BMP_pressure;BME280_temperature;BME280_humidity;BME280_pressure;Samples;Min_cycle;Max_cycle;Signal;HPM_P1;HPM_P2
2021/12/22 00:01:26;;;;;;;21.50;13.10;;;-3.00;99.90;;;;;;5044603;28;20025;-83
2021/12/22 00:03:53;;;;;;;25.42;12.35;;;-3.00;99.90;;;;;;5060104;28;20041;-83
2021/12/22 00:06:22;;;;;;;23.85;13.10;;;-3.10;99.90;;;;;;5059081;28;20033;-84
2021/12/22 00:08:48;;;;;;;27.13;14.77;;;-3.10;99.90;;;;;;5063284;28;20032;-84
2021/12/22 00:11:15;;;;;;;39.00;18.70;;;-3.10;99.90;;;;;;5062270;28;20025;-84
2021/12/22 00:13:40;;;;;;;34.05;19.02;;;-3.20;99.90;;;;;;5043892;28;20033;-84
2021/12/22 00:16:07;;;;;;;30.95;16.92;;;-3.20;99.90;;;;;;5044708;28;20174;-84
2021/12/22 00:18:33;;;;;;;28.95;16.08;;;-3.30;99.90;;;;;;5062208;28;20029;-84
2021/12/22 00:21:00;;;;;;;33.78;17.63;;;-3.30;99.90;;;;;;5062767;28;20032;-83
2021/12/22 00:23:26;;;;;;;36.03;17.88;;;-3.40;99.90;;;;;;5062471;28;20450;-84
2021/12/22 00:25:52;;;;;;;33.90;17.33;;;-3.40;99.90;;;;;;5063288;28;20021;-83
2021/12/22 00:28:18;;;;;;;33.58;16.75;;;-3.50;99.90;;;;;;5072959;28;20074;-83
2021/12/22 00:30:44;;;;;;;33.47;17.05;;;-3.50;99.90;;;;;;5069642;28;20036;-84
2021/12/22 00:33:12;;;;;;;34.03;16.40;;;-3.50;99.90;;;;;;5062337;28;20029;-82
2021/12/22 00:35:41;;;;;;;30.73;15.98;;;-3.60;99.90;;;;;;5055136;28;20096;-84
2021/12/22 00:38:08;;;;;;;29.80;15.90;;;-3.60;99.90;;;;;;5043476;28;20441;-84
2021/12/22 00:40:35;;;;;;;29.40;14.73;;;-3.60;99.90;;;;;;5061336;28;20021;-84
2021/12/22 00:43:02;;;;;;;31.75;14.80;;;-3.60;99.90;;;;;;5043513;28;20017;-84
2021/12/22 00:45:31;;;;;;;26.75;14.63;;;-3.60;99.90;;;;;;5057267;28;20027;-83
2021/12/22 00:47:57;;;;;;;26.65;14.48;;;-3.60;99.90;;;;;;5061141;28;20029;-84
2021/12/22 00:50:23;;;;;;;26.75;14.25;;;-3.60;99.90;;;;;;5059773;28;20029;-85
2021/12/22 00:52:49;;;;;;;25.95;14.20;;;-3.70;99.90;;;;;;5061356;28;20032;-84
2021/12/22 00:55:20;;;;;;;27.58;14.73;;;-3.60;99.90;;;;;;5043437;28;20057;-85
2021/12/22 00:57:47;;;;;;;25.73;13.90;;;-3.60;99.90;;;;;;5064039;28;20032;-84
2021/12/22 01:00:15;;;;;;;29.38;14.75;;;-3.60;99.90;;;;;;5082257;28;20385;-85
2021/12/22 01:02:42;;;;;;;26.35;12.88;;;-3.60;99.90;;;;;;5081373;28;20021;-85
2021/12/22 01:05:09;;;;;;;27.92;13.88;;;-3.60;99.90;;;;;;5080570;28;20103;-84
2021/12/22 01:07:34;;;;;;;26.05;13.30;;;-3.60;99.90;;;;;;5065163;28;20037;-85
2021/12/22 01:10:00;;;;;;;27.00;13.27;;;-3.50;99.90;;;;;;5060049;28;20035;-84
2021/12/22 01:12:26;;;;;;;25.95;13.70;;;-3.60;99.90;;;;;;5060446;28;20031;-85
2021/12/22 01:14:52;;;;;;;27.38;13.55;;;-3.50;99.90;;;;;;5061511;28;20025;-84
2021/12/22 01:17:18;;;;;;;24.48;13.68;;;-3.50;99.90;;;;;;5059935;28;20025;-85
2021/12/22 01:19:58;;;;;;;24.13;14.27;;;-3.50;99.90;;;;;;5060579;28;20051;-84
2021/12/22 01:25:04;;;;;;;20.42;12.77;;;-3.50;99.90;;;;;;5059838;28;20068;-84
2021/12/22 01:27:40;;;;;;;27.50;13.65;;;-3.60;99.90;;;;;;5058576;28;20082;-85
2021/12/22 01:30:11;;;;;;;22.25;11.82;;;-3.60;99.90;;;;;;5078285;28;20040;-83
2021/12/22 01:32:38;;;;;;;24.70;13.60;;;-3.60;99.90;;;;;;5068305;28;20025;-85
2021/12/22 01:35:06;;;;;;;28.50;13.52;;;-3.60;99.90;;;;;;5060398;28;20025;-84
2021/12/22 01:37:32;;;;;;;25.60;13.10;;;-3.60;99.90;;;;;;5059646;28;20128;-85
2021/12/22 01:40:00;;;;;;;24.90;12.82;;;-3.70;99.90;;;;;;5060526;28;20036;-84
2021/12/22 01:42:26;;;;;;;23.42;12.48;;;-3.70;99.90;;;;;;5060075;28;20534;-84
2021/12/22 01:50:50;;;;;;;24.10;13.50;;;-3.70;99.90;;;;;;5059907;28;20032;-84
2021/12/22 01:53:22;;;;;;;24.80;13.07;;;-3.70;99.90;;;;;;5052305;28;20061;-84
2021/12/22 01:56:01;;;;;;;22.50;12.43;;;-3.70;99.90;;;;;;5059837;28;20093;-85
2021/12/22 01:58:36;;;;;;;26.17;12.68;;;-3.70;99.90;;;;;;5060931;28;20056;-83
2021/12/22 02:01:05;;;;;;;24.85;12.00;;;-3.70;99.90;;;;;;5085024;28;20469;-82
2021/12/22 02:03:31;;;;;;;25.33;13.70;;;-3.70;99.90;;;;;;5085476;28;20036;-83
2021/12/22 02:05:57;;;;;;;26.88;14.43;;;-3.70;99.90;;;;;;5086709;28;20028;-83
2021/12/22 02:08:23;;;;;;;25.67;12.93;;;-3.60;99.90;;;;;;5085765;28;20021;-84
2021/12/22 02:10:49;;;;;;;25.00;13.38;;;-3.70;99.90;;;;;;5065996;28;20024;-84
2021/12/22 02:13:21;;;;;;;21.02;11.82;;;-3.60;99.90;;;;;;5066674;28;20028;-84
2021/12/22 02:15:48;;;;;;;26.13;13.98;;;-3.70;99.90;;;;;;5049189;28;20028;-84
2021/12/22 02:18:18;;;;;;;22.10;13.10;;;-3.70;99.90;;;;;;5066293;28;20163;-84
2021/12/22 02:20:49;;;;;;;27.48;14.40;;;-3.70;99.90;;;;;;5067070;28;20432;-84
2021/12/22 02:23:16;;;;;;;26.77;13.70;;;-3.60;99.90;;;;;;5066828;28;20361;-83
2021/12/22 02:25:51;;;;;;;25.63;13.70;;;-3.60;99.90;;;;;;5087168;28;20316;-83
2021/12/22 02:28:22;;;;;;;25.77;12.30;;;-3.60;99.90;;;;;;5067824;28;20041;-83
2021/12/22 02:30:48;;;;;;;20.50;12.20;;;-3.70;99.90;;;;;;5067736;28;20056;-82
2021/12/22 02:33:23;;;;;;;22.13;12.10;;;-3.60;99.90;;;;;;5065605;28;20033;-83
2021/12/22 02:36:07;;;;;;;22.38;13.20;;;-3.70;99.90;;;;;;5045687;28;20108;-83
2021/12/22 02:38:37;;;;;;;25.60;12.60;;;-3.70;99.90;;;;;;5060780;28;20021;-83
2021/12/22 02:41:04;;;;;;;21.55;11.40;;;-3.60;99.90;;;;;;5061301;28;20116;-84
2021/12/22 02:43:33;;;;;;;22.65;12.40;;;-3.70;99.90;;;;;;5041409;28;20022;-83
2021/12/22 02:46:00;;;;;;;21.48;12.35;;;-3.70;99.90;;;;;;5051398;28;20027;-84
2021/12/22 02:48:32;;;;;;;24.55;12.50;;;-3.70;99.90;;;;;;5058654;28;20462;-84
2021/12/22 02:51:03;;;;;;;24.42;13.38;;;-3.80;99.90;;;;;;5059191;28;20029;-84
2021/12/22 02:53:39;;;;;;;23.17;12.27;;;-3.80;99.90;;;;;;5058359;28;20494;-84
2021/12/22 03:04:09;;;;;;;18.30;10.15;;;-3.70;99.90;;;;;;5057829;28;19948;-84
2021/12/22 03:06:44;;;;;;;21.33;10.98;;;-3.70;99.90;;;;;;5057553;28;20036;-84
2021/12/22 03:09:31;;;;;;;19.83;11.38;;;-3.70;99.90;;;;;;5057290;28;20025;-83
2021/12/22 03:11:59;;;;;;;20.00;11.85;;;-3.70;99.90;;;;;;5058146;28;20039;-83
2021/12/22 03:14:26;;;;;;;20.75;11.55;;;-3.70;99.90;;;;;;5043977;28;20040;-84
2021/12/22 03:16:53;;;;;;;25.65;12.73;;;-3.70;99.90;;;;;;5061747;28;20432;-83
2021/12/22 03:19:24;;;;;;;24.20;12.48;;;-3.70;99.90;;;;;;5062817;28;20025;-83
2021/12/22 03:21:52;;;;;;;23.90;13.13;;;-3.70;99.90;;;;;;5066424;28;20056;-82
2021/12/22 03:24:20;;;;;;;27.17;12.80;;;-3.70;99.90;;;;;;5061386;28;20025;-83
2021/12/22 03:26:46;;;;;;;21.88;11.95;;;-3.60;99.90;;;;;;5061281;28;20112;-83
2021/12/22 03:29:16;;;;;;;26.23;14.13;;;-3.70;99.90;;;;;;5060578;28;20032;-83
2021/12/22 03:31:42;;;;;;;23.90;13.23;;;-3.70;99.90;;;;;;5061241;28;20021;-83
2021/12/22 03:34:09;;;;;;;23.15;12.15;;;-3.70;99.90;;;;;;5061643;28;20017;-83
2021/12/22 03:36:36;;;;;;;22.55;11.32;;;-3.70;99.90;;;;;;5060799;28;20033;-84
2021/12/22 03:39:04;;;;;;;18.25;11.00;;;-3.70;99.90;;;;;;5061093;28;20021;-83
2021/12/22 03:41:31;;;;;;;20.73;11.32;;;-3.70;99.90;;;;;;5061962;28;20048;-83
2021/12/22 03:43:56;;;;;;;20.50;11.05;;;-3.70;99.90;;;;;;5063151;28;20546;-84
2021/12/22 03:46:22;;;;;;;17.83;9.68;;;-3.70;99.90;;;;;;5076099;28;20013;-84
2021/12/22 03:48:48;;;;;;;26.27;13.35;;;-3.70;99.90;;;;;;5063024;28;20013;-83
2021/12/22 03:51:14;;;;;;;28.25;14.80;;;-3.70;99.90;;;;;;5080728;28;20017;-84
2021/12/22 03:53:40;;;;;;;29.27;14.25;;;-3.70;99.90;;;;;;5079716;28;20025;-84
2021/12/22 03:56:05;;;;;;;25.77;14.45;;;-3.70;99.90;;;;;;5062233;28;20136;-83
2021/12/22 03:58:31;;;;;;;22.92;12.48;;;-3.70;99.90;;;;;;5080766;28;20021;-85
2021/12/22 04:00:57;;;;;;;20.92;12.75;;;-3.80;99.90;;;;;;5081202;28;20028;-84
2021/12/22 04:03:28;;;;;;;22.98;12.15;;;-3.80;99.90;;;;;;5080645;28;20021;-84
2021/12/22 04:05:54;;;;;;;24.27;13.27;;;-3.80;99.90;;;;;;5063275;28;20032;-84
2021/12/22 04:08:20;;;;;;;24.42;13.32;;;-3.80;99.90;;;;;;5105864;22;20127;-80
2021/12/22 04:10:46;;;;;;;21.77;11.73;;;-3.80;99.90;;;;;;5099516;28;20056;-83
2021/12/22 04:13:13;;;;;;;22.05;12.07;;;-3.80;99.90;;;;;;5100109;28;20025;-81
2021/12/22 04:15:39;;;;;;;21.38;11.93;;;-3.90;99.90;;;;;;5099938;28;20042;-80
2021/12/22 04:18:05;;;;;;;20.88;10.90;;;-3.80;99.90;;;;;;5082446;28;20056;-79
2021/12/22 04:20:31;;;;;;;23.10;12.73;;;-3.80;99.90;;;;;;5100148;28;20048;-80
2021/12/22 04:22:58;;;;;;;20.42;10.77;;;-3.80;99.90;;;;;;5099812;28;20021;-80
2021/12/22 04:25:25;;;;;;;21.30;12.02;;;-3.80;99.90;;;;;;5082205;28;20036;-79
2021/12/22 04:27:55;;;;;;;20.42;11.60;;;-3.80;99.90;;;;;;5099685;28;20024;-79
2021/12/22 04:30:23;;;;;;;21.23;11.27;;;-3.80;99.90;;;;;;5099712;28;20009;-80
2021/12/22 04:32:50;;;;;;;19.98;11.98;;;-3.70;99.90;;;;;;5081209;28;20028;-78
2021/12/22 04:35:16;;;;;;;22.38;12.05;;;-3.70;99.90;;;;;;5099536;28;20047;-80
2021/12/22 04:37:42;;;;;;;21.88;12.43;;;-3.70;99.90;;;;;;5098389;28;20032;-80
2021/12/22 04:40:09;;;;;;;20.77;12.55;;;-3.70;99.90;;;;;;5065387;28;20032;-79
2021/12/22 04:42:35;;;;;;;20.23;11.90;;;-3.70;99.90;;;;;;5068240;28;20036;-78
2021/12/22 04:45:06;;;;;;;21.95;12.68;;;-3.70;99.90;;;;;;5050296;28;20010;-79
2021/12/22 04:47:33;;;;;;;23.63;13.25;;;-3.70;99.90;;;;;;5051632;28;20029;-79
2021/12/22 04:50:00;;;;;;;21.48;11.77;;;-3.60;99.90;;;;;;5058155;28;20025;-80
2021/12/22 04:52:39;;;;;;;23.15;12.93;;;-3.50;99.90;;;;;;5069531;28;20017;-79
2021/12/22 04:55:05;;;;;;;24.98;14.70;;;-3.40;99.90;;;;;;5067364;28;20024;-80
2021/12/22 04:57:33;;;;;;;27.15;14.15;;;-3.30;99.90;;;;;;5071355;28;20048;-79
2021/12/22 05:00:00;;;;;;;21.17;13.13;;;-3.20;99.90;;;;;;5047377;28;20033;-81
2021/12/22 05:02:27;;;;;;;24.40;13.40;;;-3.20;99.90;;;;;;5062946;28;20033;-84
2021/12/22 05:04:53;;;;;;;23.35;12.95;;;-3.20;99.90;;;;;;5053137;28;20060;-83
2021/12/22 05:07:19;;;;;;;20.73;13.02;;;-3.10;99.90;;;;;;5045057;28;20009;-82
2021/12/22 05:09:45;;;;;;;24.42;13.13;;;-3.10;99.90;;;;;;5052284;28;20033;-81
2021/12/22 05:12:10;;;;;;;20.63;12.00;;;-3.10;99.90;;;;;;5053721;28;20055;-82
2021/12/22 05:14:36;;;;;;;22.83;13.20;;;-3.00;99.90;;;;;;5060851;28;20031;-81
2021/12/22 05:17:05;;;;;;;23.63;14.02;;;-3.00;99.90;;;;;;5044396;28;20029;-82
2021/12/22 05:19:31;;;;;;;22.60;12.63;;;-3.10;99.90;;;;;;5064066;28;20029;-81
2021/12/22 05:21:57;;;;;;;23.58;13.45;;;-3.10;99.90;;;;;;5062101;28;20017;-80
2021/12/22 05:24:23;;;;;;;23.85;13.00;;;-3.10;99.90;;;;;;5061748;28;20029;-81
2021/12/22 05:26:49;;;;;;;23.83;13.18;;;-3.10;99.90;;;;;;5059939;28;20029;-82
2021/12/22 05:29:14;;;;;;;23.63;12.95;;;-3.10;99.90;;;;;;5063607;28;20040;-81
2021/12/22 05:31:40;;;;;;;23.10;12.80;;;-3.10;99.90;;;;;;5060039;28;20017;-82
2021/12/22 05:34:06;;;;;;;23.48;13.10;;;-3.10;99.90;;;;;;5063050;28;20097;-82
2021/12/22 05:36:32;;;;;;;27.88;14.27;;;-3.10;99.90;;;;;;5069301;28;20059;-81
2021/12/22 05:38:58;;;;;;;23.70;14.02;;;-3.10;99.90;;;;;;5055021;28;20509;-83
2021/12/22 05:41:25;;;;;;;26.27;14.30;;;-3.10;99.90;;;;;;5066817;28;20040;-80
2021/12/22 05:43:50;;;;;;;21.75;13.40;;;-3.00;99.90;;;;;;5043440;28;20033;-82
2021/12/22 05:46:17;;;;;;;27.25;14.93;;;-3.00;99.90;;;;;;5053990;28;20035;-82
2021/12/22 05:48:44;;;;;;;22.05;12.55;;;-2.90;99.90;;;;;;5070466;28;20037;-82
2021/12/22 05:51:10;;;;;;;20.30;12.27;;;-2.90;99.90;;;;;;5049817;28;20029;-83
2021/12/22 05:53:37;;;;;;;25.23;14.20;;;-2.80;99.90;;;;;;5044313;28;20036;-83
2021/12/22 05:56:04;;;;;;;23.20;14.20;;;-2.80;99.90;;;;;;5062729;28;20021;-80
2021/12/22 05:58:30;;;;;;;24.95;15.00;;;-2.80;99.90;;;;;;5062397;28;20446;-80
2021/12/22 06:00:56;;;;;;;22.02;13.30;;;-2.80;99.90;;;;;;5062918;28;20027;-80
2021/12/22 06:03:22;;;;;;;22.88;13.60;;;-2.80;99.90;;;;;;5063137;28;20031;-80
2021/12/22 06:05:48;;;;;;;26.45;14.88;;;-2.80;99.90;;;;;;5048377;28;20025;-80
2021/12/22 06:08:14;;;;;;;25.05;14.52;;;-2.80;99.90;;;;;;5074412;28;20043;-82
2021/12/22 06:10:40;;;;;;;26.33;14.85;;;-2.80;99.90;;;;;;5059270;28;20052;-80
2021/12/22 06:13:08;;;;;;;22.13;13.80;;;-2.80;99.90;;;;;;5039358;28;20477;-81
2021/12/22 06:15:34;;;;;;;21.58;13.13;;;-2.70;99.90;;;;;;5061910;28;20096;-82
2021/12/22 06:18:01;;;;;;;20.95;12.65;;;-2.70;99.90;;;;;;5061549;28;20040;-83
2021/12/22 06:20:28;;;;;;;26.23;14.88;;;-2.70;99.90;;;;;;5062638;28;20017;-83
2021/12/22 06:22:55;;;;;;;25.58;14.05;;;-2.60;99.90;;;;;;5067590;28;20051;-83
2021/12/22 06:25:21;;;;;;;19.63;12.13;;;-2.50;99.90;;;;;;5053445;28;20026;-82
2021/12/22 06:27:47;;;;;;;21.13;13.30;;;-2.50;99.90;;;;;;5045657;28;20029;-82
2021/12/22 06:30:13;;;;;;;22.67;13.50;;;-2.40;99.90;;;;;;5051686;28;20044;-82
2021/12/22 06:32:39;;;;;;;27.40;15.75;;;-2.50;99.90;;;;;;5045741;28;20026;-81
2021/12/22 06:35:06;;;;;;;23.70;13.70;;;-2.40;99.90;;;;;;5032165;28;20023;-81
2021/12/22 06:37:32;;;;;;;28.88;16.00;;;-2.40;99.90;;;;;;5050332;28;20025;-82
2021/12/22 06:39:58;;;;;;;24.10;15.18;;;-2.50;99.90;;;;;;5061508;28;20044;-82
2021/12/22 06:42:24;;;;;;;25.98;14.05;;;-2.60;99.90;;;;;;5052981;28;20048;-82
2021/12/22 06:44:52;;;;;;;28.95;14.75;;;-2.70;99.90;;;;;;5045384;28;20120;-82
2021/12/22 06:47:18;;;;;;;24.77;14.55;;;-2.70;99.90;;;;;;5060886;28;20029;-80
2021/12/22 06:49:44;;;;;;;25.08;14.15;;;-2.60;99.90;;;;;;5061948;28;20079;-82
2021/12/22 06:52:10;;;;;;;24.88;14.30;;;-2.60;99.90;;;;;;5046460;28;20025;-82
2021/12/22 06:54:35;;;;;;;25.90;15.93;;;-2.60;99.90;;;;;;5063297;28;20077;-81
2021/12/22 06:57:02;;;;;;;25.02;14.82;;;-2.60;99.90;;;;;;5067999;28;20029;-82
2021/12/22 06:59:27;;;;;;;23.27;14.55;;;-2.60;99.90;;;;;;5074082;28;20017;-82
2021/12/22 07:01:53;;;;;;;24.42;14.40;;;-2.60;99.90;;;;;;5074617;28;20067;-81
2021/12/22 07:04:19;;;;;;;28.25;15.35;;;-2.60;99.90;;;;;;5071230;28;20029;-83
2021/12/22 07:06:46;;;;;;;25.73;14.88;;;-2.60;99.90;;;;;;5064676;28;20555;-81
2021/12/22 07:09:12;;;;;;;25.52;14.80;;;-2.60;99.90;;;;;;5042079;28;20041;-84
2021/12/22 07:11:38;;;;;;;24.52;14.63;;;-2.60;99.90;;;;;;5039833;28;20100;-83
2021/12/22 07:14:08;;;;;;;26.90;15.18;;;-2.60;99.90;;;;;;5039940;28;20428;-83
2021/12/22 07:16:34;;;;;;;26.13;14.77;;;-2.60;99.90;;;;;;5039919;28;20029;-82
2021/12/22 07:19:01;;;;;;;28.65;16.38;;;-2.60;99.90;;;;;;5039898;28;20489;-80
2021/12/22 07:21:27;;;;;;;24.95;15.45;;;-2.60;99.90;;;;;;5040260;28;20021;-81
2021/12/22 07:23:53;;;;;;;24.27;14.70;;;-2.70;99.90;;;;;;5027652;28;20028;-79
2021/12/22 07:26:19;;;;;;;22.80;13.65;;;-2.60;99.90;;;;;;5063195;28;20029;-79
2021/12/22 07:28:46;;;;;;;27.63;15.10;;;-2.60;99.90;;;;;;5059888;28;20025;-79
2021/12/22 07:31:14;;;;;;;25.35;13.90;;;-2.60;99.90;;;;;;5061993;28;20025;-79
2021/12/22 07:33:52;;;;;;;28.83;16.15;;;-2.50;99.90;;;;;;5062694;28;20025;-79
2021/12/22 07:36:18;;;;;;;24.35;15.10;;;-2.30;99.90;;;;;;5062609;28;20040;-79
2021/12/22 07:38:58;;;;;;;22.88;13.95;;;-2.30;99.90;;;;;;5064349;28;20033;-81
2021/12/22 07:41:24;;;;;;;24.45;14.20;;;-2.20;99.90;;;;;;5054994;28;20030;-79
2021/12/22 07:43:54;;;;;;;24.80;13.95;;;-2.10;99.90;;;;;;5063364;28;20481;-78
2021/12/22 07:46:20;;;;;;;25.17;14.45;;;-2.20;99.90;;;;;;5062769;28;20055;-79
2021/12/22 07:48:46;;;;;;;23.35;13.32;;;-2.20;99.90;;;;;;5062485;28;20021;-78
2021/12/22 07:51:15;;;;;;;23.95;13.82;;;-2.20;99.90;;;;;;5046064;28;20036;-80
2021/12/22 07:53:41;;;;;;;26.95;15.70;;;-2.10;99.90;;;;;;5063920;28;20465;-79
2021/12/22 07:56:07;;;;;;;26.73;14.65;;;-2.10;99.80;;;;;;5043493;28;20032;-79
2021/12/22 07:58:33;;;;;;;24.67;14.43;;;-2.10;99.40;;;;;;5061981;28;20103;-80
2021/12/22 08:00:59;;;;;;;24.55;15.13;;;-2.10;99.30;;;;;;5066057;28;20040;-78
2021/12/22 08:03:25;;;;;;;27.10;14.35;;;-2.20;99.10;;;;;;5065749;28;20101;-80
2021/12/22 08:05:52;;;;;;;22.38;13.57;;;-2.30;99.10;;;;;;5049115;28;20081;-78
2021/12/22 08:08:18;;;;;;;25.67;15.20;;;-2.30;99.40;;;;;;5065973;28;20024;-80
2021/12/22 08:10:46;;;;;;;28.15;14.23;;;-2.30;99.60;;;;;;5065432;28;20560;-79
2021/12/22 08:13:12;;;;;;;23.63;15.00;;;-2.20;99.60;;;;;;5050600;28;20402;-78
2021/12/22 08:15:38;;;;;;;26.10;14.30;;;-2.30;99.60;;;;;;5047280;28;20055;-80
2021/12/22 08:18:04;;;;;;;25.30;14.75;;;-2.30;99.60;;;;;;5065851;28;20029;-80
2021/12/22 08:20:29;;;;;;;27.38;14.48;;;-2.40;99.40;;;;;;5068694;28;20029;-81
2021/12/22 08:22:55;;;;;;;29.55;15.32;;;-2.40;99.50;;;;;;5067367;28;20029;-80
2021/12/22 08:25:21;;;;;;;27.08;13.98;;;-2.50;99.90;;;;;;5067212;28;20037;-79
2021/12/22 08:27:47;;;;;;;27.00;13.52;;;-2.50;99.90;;;;;;5066905;28;20032;-80
2021/12/22 08:30:14;;;;;;;25.98;14.35;;;-2.50;99.90;;;;;;5066125;28;20044;-80
2021/12/22 08:32:40;;;;;;;25.38;14.80;;;-2.40;99.90;;;;;;5066509;28;20108;-80
2021/12/22 08:35:08;;;;;;;26.65;15.25;;;-2.30;99.90;;;;;;5045159;28;20494;-79
2021/12/22 08:40:21;;;;;;;22.08;13.40;;;-2.30;99.90;;;;;;5061365;28;20130;-80
2021/12/22 08:42:47;;;;;;;20.67;12.80;;;-2.30;99.90;;;;;;5062350;28;20017;-79
2021/12/22 08:45:13;;;;;;;22.60;12.68;;;-2.30;99.90;;;;;;5065351;28;20025;-79
2021/12/22 08:47:40;;;;;;;20.27;12.07;;;-2.30;99.90;;;;;;5064739;28;20045;-79
2021/12/22 08:50:08;;;;;;;24.77;14.13;;;-2.20;99.90;;;;;;5049690;28;20025;-79
2021/12/22 08:52:34;;;;;;;21.95;12.65;;;-2.00;99.90;;;;;;5064015;28;20048;-79
2021/12/22 08:55:00;;;;;;;23.52;13.93;;;-1.90;99.90;;;;;;5046619;28;20059;-80
2021/12/22 08:57:26;;;;;;;23.85;14.30;;;-1.80;99.90;;;;;;5039555;28;20044;-80
2021/12/22 08:59:51;;;;;;;24.73;14.70;;;-1.70;99.90;;;;;;5042479;28;20057;-80
2021/12/22 09:02:17;;;;;;;21.63;13.77;;;-1.60;99.60;;;;;;5021832;28;20017;-79
2021/12/22 09:04:43;;;;;;;27.35;14.60;;;-1.60;98.80;;;;;;5040380;28;20305;-79
2021/12/22 09:07:09;;;;;;;27.25;15.07;;;-1.60;98.70;;;;;;5046632;28;20029;-81
2021/12/22 09:09:37;;;;;;;25.25;14.63;;;-1.70;98.40;;;;;;5051759;28;20033;-79
2021/12/22 09:12:03;;;;;;;20.85;12.68;;;-1.60;99.00;;;;;;5045117;28;20028;-80
2021/12/22 09:14:29;;;;;;;23.00;12.95;;;-1.40;99.40;;;;;;5045337;28;20021;-81
2021/12/22 09:16:54;;;;;;;22.83;13.52;;;-1.20;99.00;;;;;;5020843;28;20116;-77
2021/12/22 09:19:20;;;;;;;21.30;13.07;;;-1.00;98.60;;;;;;5039709;28;20518;-80
2021/12/22 09:21:46;;;;;;;22.70;12.05;;;-0.80;97.90;;;;;;5033869;28;20047;-81
2021/12/22 09:24:12;;;;;;;21.02;12.48;;;-0.80;96.90;;;;;;5059391;28;20051;-80
2021/12/22 09:26:38;;;;;;;22.92;12.50;;;-1.00;96.30;;;;;;5059723;28;20096;-81
2021/12/22 09:29:07;;;;;;;23.52;13.18;;;-1.10;96.70;;;;;;5060127;28;20029;-80
2021/12/22 09:31:33;;;;;;;20.48;12.35;;;-1.20;96.70;;;;;;5056662;28;20025;-78
2021/12/22 09:33:58;;;;;;;22.80;13.52;;;-1.30;96.60;;;;;;5063898;28;20473;-82
2021/12/22 09:36:24;;;;;;;24.80;13.85;;;-1.30;97.30;;;;;;5045147;28;20029;-81
2021/12/22 09:38:50;;;;;;;23.23;13.25;;;-1.30;97.30;;;;;;5045524;28;20036;-77
2021/12/22 09:41:16;;;;;;;23.92;13.57;;;-1.20;97.60;;;;;;5039316;28;20040;-80
2021/12/22 09:43:43;;;;;;;20.98;12.23;;;-1.00;97.90;;;;;;5059081;28;20342;-78
2021/12/22 09:46:13;;;;;;;21.98;12.45;;;-0.80;97.60;;;;;;5059781;28;20462;-79
2021/12/22 09:53:35;;;;;;;18.85;12.55;;;-0.60;95.60;;;;;;5058756;28;20037;-79
2021/12/22 09:56:02;;;;;;;21.73;12.20;;;-0.70;95.60;;;;;;5058539;28;20020;-79
2021/12/22 09:58:28;;;;;;;24.48;13.88;;;-0.80;95.20;;;;;;5042158;28;20033;-80
2021/12/22 10:00:55;;;;;;;25.75;14.55;;;-0.90;95.40;;;;;;5041481;28;20029;-80
2021/12/22 10:03:22;;;;;;;23.58;12.15;;;-1.00;95.80;;;;;;5060206;28;20033;-80
2021/12/22 10:05:51;;;;;;;23.23;12.73;;;-1.00;96.10;;;;;;5059361;28;20052;-78
2021/12/22 10:08:22;;;;;;;22.25;13.93;;;-1.00;96.10;;;;;;5060595;28;20025;-78
2021/12/22 10:11:10;;;;;;;29.13;14.18;;;-1.10;95.70;;;;;;5106246;22;20062;-87
2021/12/22 10:13:38;;;;;;;25.95;13.93;;;-1.30;96.30;;;;;;5069652;28;20021;-88
2021/12/22 10:16:22;;;;;;;25.00;13.98;;;-1.30;96.60;;;;;;5069987;28;20025;-87
2021/12/22 10:19:00;;;;;;;25.88;14.10;;;-1.40;96.60;;;;;;5087873;28;20032;-87
2021/12/22 10:21:36;;;;;;;25.48;14.27;;;-1.40;97.00;;;;;;5088639;28;20100;-88
2021/12/22 10:24:05;;;;;;;21.40;12.73;;;-1.30;97.30;;;;;;5072574;28;20029;-87
2021/12/22 10:26:31;;;;;;;24.83;14.55;;;-1.20;97.60;;;;;;5081728;28;20028;-87
2021/12/22 10:29:05;;;;;;;20.17;12.40;;;-0.90;97.80;;;;;;5049634;28;20133;-87
2021/12/22 10:31:45;;;;;;;18.63;12.07;;;-0.60;97.20;;;;;;5051719;28;20025;-87
2021/12/22 10:34:17;;;;;;;21.60;12.32;;;-0.20;97.10;;;;;;5063303;28;20040;-87
2021/12/22 10:36:49;;;;;;;20.00;12.50;;;0.20;96.30;;;;;;5088179;28;20055;-87
2021/12/22 10:39:22;;;;;;;23.60;14.15;;;0.30;94.90;;;;;;5079826;28;20743;-87
2021/12/22 10:41:49;;;;;;;24.13;14.05;;;-0.10;93.10;;;;;;5078337;28;20025;-87
2021/12/22 10:44:15;;;;;;;23.02;12.60;;;-0.40;93.80;;;;;;5048648;28;20485;-87
2021/12/22 10:46:41;;;;;;;25.55;14.30;;;-0.60;94.40;;;;;;5049822;28;20055;-87
2021/12/22 10:49:14;;;;;;;24.95;15.45;;;-0.60;94.60;;;;;;5050156;28;20029;-87
2021/12/22 10:51:43;;;;;;;27.38;14.85;;;-0.90;94.00;;;;;;5049904;28;20051;-88
2021/12/22 10:54:11;;;;;;;25.17;13.40;;;-1.10;94.90;;;;;;5029683;28;20030;-87
2021/12/22 10:56:39;;;;;;;26.33;14.60;;;-1.10;95.80;;;;;;5030380;28;20036;-86
2021/12/22 10:59:13;;;;;;;20.67;12.00;;;-0.80;96.30;;;;;;5029318;28;20049;-87
2021/12/22 11:01:54;;;;;;;22.30;13.13;;;-0.50;96.20;;;;;;5046802;28;20053;-87
2021/12/22 11:04:25;;;;;;;23.17;13.18;;;-0.20;95.80;;;;;;5047771;28;20087;-87
2021/12/22 11:06:54;;;;;;;20.85;13.43;;;0.00;95.50;;;;;;5029488;28;20112;-87
2021/12/22 11:09:23;;;;;;;20.60;12.50;;;0.10;94.80;;;;;;5074007;28;20172;-87
2021/12/22 11:11:54;;;;;;;17.42;11.23;;;0.00;94.40;;;;;;5068238;28;20069;-87
2021/12/22 11:14:29;;;;;;;23.02;13.13;;;0.10;94.70;;;;;;5047586;28;20032;-87
2021/12/22 11:17:09;;;;;;;21.38;13.10;;;0.10;93.70;;;;;;5067445;28;20539;-87
2021/12/22 11:19:38;;;;;;;25.27;14.32;;;-0.10;93.40;;;;;;5050476;28;20096;-87
2021/12/22 11:22:13;;;;;;;20.25;12.80;;;-0.40;93.10;;;;;;5066869;28;20085;-87
2021/12/22 11:24:43;;;;;;;22.48;12.57;;;-0.60;94.00;;;;;;5051139;28;20034;-87
2021/12/22 11:27:11;;;;;;;18.15;11.48;;;-0.60;94.70;;;;;;5058530;28;20028;-86
2021/12/22 11:29:39;;;;;;;24.75;12.70;;;-0.40;95.10;;;;;;5058746;28;20013;-86
2021/12/22 11:32:07;;;;;;;24.73;13.13;;;0.00;94.80;;;;;;5066644;28;20047;-86
2021/12/22 11:34:36;;;;;;;18.08;10.95;;;0.20;94.30;;;;;;5071302;28;20066;-87
2021/12/22 11:37:07;;;;;;;18.80;12.38;;;0.30;94.10;;;;;;5068263;28;20622;-86
2021/12/22 11:39:33;;;;;;;21.30;11.98;;;0.30;93.60;;;;;;5055538;28;20021;-87
2021/12/22 11:42:03;;;;;;;18.88;12.27;;;0.20;92.90;;;;;;5048762;28;20029;-87
2021/12/22 11:44:31;;;;;;;21.52;13.63;;;0.00;93.20;;;;;;5048405;28;20047;-87
2021/12/22 11:47:01;;;;;;;20.88;12.68;;;-0.30;93.30;;;;;;5073309;28;20107;-86
2021/12/22 11:49:28;;;;;;;23.00;13.27;;;-0.60;93.60;;;;;;5059892;28;20021;-87
2021/12/22 11:51:56;;;;;;;21.10;13.70;;;-0.90;93.70;;;;;;5073052;28;20073;-87
2021/12/22 11:54:27;;;;;;;21.70;13.13;;;-1.10;94.70;;;;;;5067582;28;20094;-86
2021/12/22 11:56:55;;;;;;;21.40;11.85;;;-1.30;95.00;;;;;;5075172;28;20013;-86
2021/12/22 11:59:30;;;;;;;23.58;11.70;;;-1.40;95.50;;;;;;5075204;28;20041;-86
2021/12/22 12:02:16;;;;;;;21.60;12.00;;;-1.30;96.00;;;;;;5051792;28;20382;-85
2021/12/22 12:04:42;;;;;;;20.05;13.10;;;-1.00;96.20;;;;;;5070669;28;20021;-85
2021/12/22 12:07:07;;;;;;;24.88;13.93;;;-0.80;96.20;;;;;;5065582;28;20089;-87
2021/12/22 12:09:33;;;;;;;25.23;14.27;;;-0.50;95.30;;;;;;5061924;28;20043;-86
2021/12/22 12:12:04;;;;;;;21.00;12.55;;;-0.30;94.70;;;;;;5066402;28;20029;-85
2021/12/22 12:23:29;;;;;;;16.52;10.80;;;-0.20;94.60;;;;;;5064599;28;20024;-87
2021/12/22 12:25:59;;;;;;;15.43;10.38;;;-0.10;94.50;;;;;;5064327;28;20021;-87
2021/12/22 12:28:25;;;;;;;16.58;10.13;;;0.00;94.40;;;;;;5064981;28;20021;-85
2021/12/22 12:30:59;;;;;;;23.10;12.52;;;0.00;94.10;;;;;;5075741;28;20112;-86
2021/12/22 12:33:36;;;;;;;22.10;12.98;;;-0.10;93.60;;;;;;5083643;28;20462;-86
2021/12/22 12:36:08;;;;;;;21.83;13.18;;;-0.20;93.30;;;;;;5070332;28;20025;-87
2021/12/22 12:38:40;;;;;;;21.75;13.45;;;-0.40;93.50;;;;;;5062506;28;20021;-87
2021/12/22 12:41:16;;;;;;;26.48;13.45;;;-0.40;94.00;;;;;;5044516;28;20087;-86
2021/12/22 12:48:48;;;;;;;20.92;11.88;;;-0.50;94.30;;;;;;5062792;28;20025;-86
2021/12/22 12:51:13;;;;;;;19.58;11.93;;;-0.50;94.20;;;;;;5067309;28;20017;-86
2021/12/22 12:53:45;;;;;;;18.13;10.95;;;-0.50;94.40;;;;;;5044992;28;20025;-86
2021/12/22 12:56:12;;;;;;;20.70;12.00;;;-0.50;94.50;;;;;;5044724;28;20025;-85
2021/12/22 12:59:06;;;;;;;20.20;12.32;;;-0.50;94.60;;;;;;5044781;28;20029;-88
2021/12/22 13:01:44;;;;;;;24.50;13.13;;;-0.60;94.30;;;;;;5066787;28;20040;-87
2021/12/22 13:04:22;;;;;;;24.73;14.25;;;-0.70;94.50;;;;;;5063258;28;20024;-86
2021/12/22 13:07:09;;;;;;;24.80;12.75;;;-0.70;94.60;;;;;;5064133;28;20028;-88
2021/12/22 13:09:40;;;;;;;19.35;11.23;;;-0.70;94.80;;;;;;5047200;28;20066;-87
2021/12/22 13:17:34;;;;;;;20.23;11.88;;;-0.20;94.80;;;;;;5061610;28;20107;-85